x

Folly Island, Sc (fbis1) Weather Station

4:00pm - Tue 30th Aug 2016 All times are EDT. -4 hours from GMT.

  • Wind
    8mph, 9mph gusts
  • Air Temp 81°f
  • Sea Pressure 1016.4mb
  • Folly Island, Sc
  • Folly Island, Sc

More Historic Weather Station data

Upgrade to MSW Pro to gain access to the past 30 days of data for over 8000 Wavebouys and Weather Stations around the globe.

Join Pro

Comparision Forecast

View Surf forecast
   
Tue 08/30 4:00pm 8 9 mph 1016.4mb 81f
3:00pm 8 10 mph 1016.5mb 80f
2:00pm 3 5 mph 1017.2mb 79f
1:00pm 2 3 mph 1017.8mb 77f
12:00pm 9 10 mph 1019mb 77f
11:00am 16 17 mph 1020mb 76f
10:00am 5 6 mph 1018.9mb 78f
9:00am 5 6 mph 1017.9mb 78f
8:00am 9 11 mph 1017.8mb 77f
7:00am 8 10 mph 1017mb 77f
6:00am 9 11 mph 1016.6mb 77f
5:00am 9 10 mph 1016.4mb 80f
4:00am 8 10 mph 1016.7mb 79f
3:00am 8 9 mph 1016.9mb 80f
2:00am 11 13 mph 1017.1mb 82f
1:00am 13 15 mph 1017.3mb 82f
12:00am 11 13 mph 1017.5mb 82f
Mon 08/29 11:00pm 10 13 mph 1017.6mb 82f
10:00pm 15 16 mph 1017.8mb 82f
9:00pm 14 15 mph 1017.6mb 82f
8:00pm 10 13 mph 1017.4mb 82f
7:00pm 16 17 mph 1017mb 82f
6:00pm 13 14 mph 1017.2mb 83f
5:00pm 13 14 mph 1017.9mb 84f
4:00pm 17 18 mph 1017.2mb 83f
3:00pm 14 16 mph 1017.7mb 84f
2:00pm 14 16 mph 1018.3mb 84f
1:00pm 9 13 mph 1018.4mb 82f
12:00pm 11 14 mph 1018.8mb 81f
11:00am 10 13 mph 1018.7mb 81f
10:00am 8 9 mph 1018.8mb 79f
9:00am 11 15 mph 1018.5mb 77f
8:00am 7 8 mph 1018.2mb 79f
7:00am 10 11 mph 1017.8mb 78f
6:00am 9 11 mph 1017.5mb 77f
5:00am 8 9 mph 1017.4mb 78f
4:00am 14 15 mph 1017.3mb 80f
3:00am 13 14 mph 1017.6mb 79f
2:00am 10 11 mph 1017.9mb 80f
1:00am 11 15 mph 1018.2mb 82f
12:00am 14 17 mph 1018.4mb 82f
Sun 08/28 11:00pm 15 16 mph 1018.4mb 83f
10:00pm 11 15 mph 1018.3mb 81f
9:00pm 16 20 mph 1017.9mb 83f
8:00pm 16 18 mph 1017.6mb 83f
7:00pm 14 16 mph 1017.6mb 83f
6:00pm 15 17 mph 1017.5mb 83f
5:00pm 17 20 mph 1018mb 84f
4:00pm 18 20 mph 1018.2mb 84f
3:00pm 15 16 mph 1018.7mb 85f
2:00pm 15 17 mph 1019.2mb 85f
1:00pm 14 15 mph 1019.4mb 85f
12:00pm 16 18 mph 1019.9mb 84f
11:00am 14 16 mph 1020.1mb 83f
10:00am 9 10 mph 1020mb 82f
9:00am 11 14 mph 1019.7mb 81f
8:00am 11 13 mph 1019.3mb 80f
7:00am 11 13 mph 1018.9mb 80f
6:00am 11 13 mph 1018.5mb 80f
5:00am 10 13 mph 1018.3mb 80f
4:00am 11 13 mph 1018mb 81f
3:00am 13 14 mph 1018.3mb 82f
2:00am 13 14 mph 1018.5mb 83f
1:00am 14 15 mph 1018.8mb 83f
12:00am 11 13 mph 1019.3mb 83f
Sat 08/27 11:00pm 11 13 mph 1019.3mb 83f
10:00pm 11 14 mph 1019.3mb 83f
9:00pm 11 14 mph 1018.4mb 83f
8:00pm 14 15 mph 1017.9mb 82f
7:00pm 14 16 mph 1017.4mb 83f
6:00pm 13 15 mph 1017.6mb 83f
5:00pm 14 17 mph 1018.3mb 83f
4:00pm 13 15 mph 1018.5mb 84f
3:00pm 11 14 mph 1018.8mb 84f
2:00pm 13 15 mph 1019.1mb 84f
1:00pm 15 16 mph 1018.9mb 83f
12:00pm 16 18 mph 1019.3mb 83f
11:00am 17 20 mph 1019.4mb 83f
10:00am 11 14 mph 1019.3mb 82f
9:00am 10 13 mph 1018.9mb 80f
8:00am 9 10 mph 1018.4mb 79f
7:00am 9 11 mph 1018mb 79f
6:00am 9 11 mph 1017.9mb 80f
5:00am 10 11 mph 1017.5mb 80f
4:00am 10 11 mph 1017.6mb 81f
3:00am 8 9 mph 1017.9mb 81f
2:00am 5
mph
1018.3mb 81f
1:00am 6 7 mph 1018.7mb 82f
12:00am 7 8 mph 1018.8mb 82f
Fri 08/26 11:00pm 10 13 mph 1018.8mb 82f
10:00pm 9 11 mph 1018.5mb 82f